Flight Track Log - Related Links

Times and Time Zones

All times are in EDT time to prevent confusion due to time zone crossing. See the PDT4396 flight status page for this flight to view local times or setup timezone preferences in your user account.

Time Position Orientation Groundspeed Altitude Reporting Facility
EDT Latitude Longitude Course Direction KTS MPH feet Rate Location/Type
Wed 06:24:00 PM 40.3249 -76.4436 61° Northeast  Level Estimated
Wed 06:24:02 PM 40.2825 -76.8414 62° Northeast 137 158 5,100  Level New Center
Wed 06:25:00 PM 40.3577 -76.3637 62° Northeast  Level Estimated
Wed 06:25:02 PM 40.3189 -76.8636 335° Northwest 137 158 6,300  Level New Center
Wed 06:26:00 PM 40.3904 -76.2837 62° Northeast  Level Estimated
Wed 06:26:02 PM 40.3689 -76.8625 North 155 178 7,700  Level New Center
Wed 06:27:00 PM 40.4231 -76.2036 62° Northeast  Level Estimated
Wed 06:27:02 PM 40.4189 -76.8669 356° North 168 193 9,000  Level New Center
Wed 06:28:02 PM 40.4561 -76.8319 36° Northeast 159 183 10,400 1,300 Climbing New Center
Wed 06:29:02 PM 40.4942 -76.7808 46° Northeast 188 216 11,600 950 Climbing New Center
Wed 06:30:02 PM 40.5322 -76.7294 46° Northeast 198 228 12,300 850 Climbing New Center
Wed 06:31:02 PM 40.5764 -76.6758 43° Northeast 209 241 13,300 900 Climbing New Center
Wed 06:32:02 PM 40.6172 -76.6136 49° Northeast 214 246 14,100 807 Climbing New Center
Wed 06:33:01 PM 40.6656 -76.5603 40° Northeast 214 246 14,900 756 Climbing New Center
Wed 06:34:01 PM 40.7056 -76.5089 44° Northeast 220 253 15,600 694 Climbing New Center
Wed 06:35:02 PM 40.7503 -76.4469 46° Northeast 220 253 16,300 694 Climbing New Center
Wed 06:36:02 PM 40.8014 -76.3800 45° Northeast 230 265 17,000 353 Climbing New Center
Wed 06:37:01 PM 40.8464 -76.3094 50° Northeast 237 273 17,000  Level New Center
Wed 06:38:02 PM 40.8994 -76.2425 44° Northeast 254 292 17,000  Level New Center
Wed 06:39:02 PM 40.9503 -76.1833 41° Northeast 259 298 17,000  Level New Center
Wed 06:40:02 PM 41.0097 -76.1111 43° Northeast 267 307 17,000  Level New Center
Wed 06:41:02 PM 41.0586 -76.0433 46° Northeast 272 313 17,000  Level New Center
Wed 06:42:02 PM 41.1117 -75.9758 44° Northeast 267 307 17,000  Level New Center
Wed 06:43:02 PM 41.1711 -75.9006 44° Northeast 267 307 17,000  Level New Center
Wed 06:44:02 PM 41.2222 -75.8272 47° Northeast 267 307 17,000  Level New Center
Wed 06:45:01 PM 41.2733 -75.7508 48° Northeast 267 307 17,000  Level New Center
Wed 06:46:01 PM 41.3281 -75.6831 43° Northeast 267 307 17,000  Level New Center
Wed 06:47:02 PM 41.3811 -75.6125 45° Northeast 267 307 17,000  Level New Center
Wed 06:48:02 PM 41.4339 -75.5442 44° Northeast 267 307 17,000  Level New Center
Wed 06:49:02 PM 41.4847 -75.4703 47° Northeast 267 307 17,000  Level New Center
Wed 06:50:03 PM 41.5092 -75.3806 70° East 267 307 17,000  Level New Center
Wed 06:51:03 PM 41.5403 -75.2747 69° East 276 318 17,000  Level New Center
Wed 06:52:01 PM 41.5689 -75.1794 68° East 283 326 17,000  Level New Center
Wed 06:54:04 PM 41.6256 -74.9797 69° East 280 322 17,000  Level Boston Center
Wed 06:55:05 PM 41.6567 -74.8839 66° East 280 322 17,000  Level Boston Center
Wed 06:56:07 PM 41.6886 -74.7786 68° East 282 325 17,000  Level Boston Center
Wed 06:57:08 PM 41.7150 -74.6789 70° East 283 326 17,000  Level Boston Center
Wed 06:58:09 PM 41.7444 -74.5814 68° East 283 326 17,000  Level Boston Center
Wed 06:59:11 PM 41.7775 -74.4781 67° East 282 325 17,000  Level Boston Center
Wed 07:00:12 PM 41.8097 -74.3814 66° East 282 325 17,000  Level Boston Center
Wed 07:01:14 PM 41.8439 -74.2856 64° Northeast 283 326 17,000  Level Boston Center
Wed 07:02:15 PM 41.8756 -74.1883 66° East 284 327 17,000  Level Boston Center
Wed 07:03:16 PM 41.9108 -74.0861 65° Northeast 283 326 17,000  Level Boston Center
Wed 07:04:17 PM 41.9400 -73.9889 68° East 282 325 17,000  Level Boston Center
Wed 07:05:19 PM 41.9681 -73.8894 69° East 283 326 17,000  Level Boston Center
Wed 07:06:20 PM 42.0011 -73.7914 66° East 286 329 17,000  Level Boston Center
Wed 07:07:21 PM 42.0350 -73.6889 66° East 284 327 17,000  Level Boston Center
Wed 07:08:23 PM 42.0658 -73.5917 67° East 282 325 17,000  Level Boston Center
Wed 07:09:24 PM 42.0919 -73.5031 68° East 285 328 17,000  Level Boston Center
Wed 07:10:25 PM 42.1247 -73.4081 65° Northeast 284 327 17,000  Level Boston Center
Wed 07:11:26 PM 42.1611 -73.2939 67° East 284 327 17,000  Level Boston Center
Wed 07:12:28 PM 42.1919 -73.1944 67° East 285 328 17,000  Level Boston Center
Wed 07:13:29 PM 42.2231 -73.0981 66° East 285 328 17,000  Level Boston Center
Wed 07:14:30 PM 42.2558 -72.9922 67° East 284 327 17,000  Level Boston Center
Wed 07:15:32 PM 42.2864 -72.8942 67° East 284 327 17,000  Level Boston Center
Wed 07:16:33 PM 42.3183 -72.7978 66° East 284 327 17,000  Level Boston Center
Wed 07:17:34 PM 42.3492 -72.7008 67° East 283 326 17,000  Level Boston Center
Wed 07:18:35 PM 42.3744 -72.6164 68° East 282 325 17,000  Level Boston Center
Wed 07:19:36 PM 42.4125 -72.4992 66° East 283 326 17,000 -488 Level Boston Center
Wed 07:20:38 PM 42.4364 -72.3925 73° East 300 345 16,000 -976 Descending Boston Center
Wed 07:21:39 PM 42.4492 -72.2664 82° East 316 364 15,000 -984 Descending Boston Center
Wed 07:22:40 PM 42.4628 -72.1456 81° East 325 374 14,000 -1,180 Descending Boston Center
Wed 07:23:41 PM 42.4781 -72.0275 80° East 324 373 12,600 -1,415 Descending Boston Center
Wed 07:24:43 PM 42.4958 -71.9083 79° East 305 351 11,100 -1,415 Descending Boston Center
Wed 07:25:44 PM 42.5072 -71.8003 82° East 294 338 9,700 -1,033 Descending Boston Center
Wed 07:26:45 PM 42.5050 -71.6944 92° East 281 323 9,000 -492 Descending Boston Center
Wed 07:27:46 PM 42.4961 -71.5961 97° East 270 311 8,700 -634 Descending Boston Center
Wed 07:28:48 PM 42.4825 -71.4867 100° East 271 312 7,700 -927 Descending Boston Center
Wed 07:29:49 PM 42.4708 -71.3864 99° East 272 313 6,800 -885 Descending Boston Center
Wed 07:30:50 PM 42.4611 -71.2886 98° East 265 305 5,900 -878 Descending Boston Center
Wed 07:31:52 PM 42.4483 -71.1892 100° East 254 292 5,000 -439 Descending Boston Center
Wed 07:32:53 PM 42.4078 -71.1272 132° Southeast 247 284 5,000  Level Boston Center
Wed 07:33:54 PM 42.3456 -71.1600 201° Southwest 240 276 5,000 -98 Level Boston Center
Wed 07:34:56 PM 42.2819 -71.1950 202° Southwest 241 277 4,800 -488 Descending Boston Center
Wed 07:35:57 PM 42.2158 -71.2331 203° Southwest 241 277 4,000 -393 Descending Boston Center
Wed 07:36:58 PM 42.1608 -71.2133 165° South 236 272 4,000 -195 Level Boston Center
Wed 07:38:00 PM 42.1597 -71.1386 91° East 225 259 3,600 -634 Descending Boston Center
Wed 07:39:01 PM 42.2153 -71.0950 30° Northeast 229 264 2,700 -885 Descending Boston Center
Wed 07:40:02 PM 42.2647 -71.0611 27° Northeast 180 207 1,800 -634 Descending Boston Center
Wed 07:41:04 PM 42.3006 -71.0406 23° Northeast 168 193 1,400 -634 Descending Boston Center
Wed 07:42:05 PM 42.3389 -71.0236 18° North 129 148 500 -590 Descending Boston Center
Wed 07:43:06 PM 42.3642 -71.0106 21° North 118 136 200 -295 Descending Boston Center

Login

Don't have an account? Register now (free) for customized features, flight alerts, and more!